Olib — 9AA6266 — position and weather

sailwx.info

Track history (hours):
 
Tides and Currents Weather Stations Pressure Air Temp Water Temp Dewpoint Dewpoint Depression Visibility Wind Speed Wind Dir Waves Ship Positions

Olib

Last reported at 2017-May-26 23:18 UTC. Time now 2017-May-27 04:22 UTC.
Position N 49°48' W 003°26'.

Length 247 m; draft 14.8 m.

Type: Ship (hazmat cat A). MMSI: 238252000.

Date/timePositionNaut miles runAvg speedWind from/ knotsBaromVisibWave heightAir tempDewpointWater temp
2017-May-26 23:18N 49°48' W 003°26'413.5
2017-May-26 23:01N 49°50' W 003°20'612.9
2017-May-26 22:31N 49°54' W 003°12'612.3
2017-May-26 22:01N 49°57' W 003°04'611.5
2017-May-26 21:31N 49°60' W 002°56'510.8
2017-May-26 21:01N 50°01' W 002°48'510.2
2017-May-26 20:31N 50°03' W 002°40'7 9.7
2017-May-26 19:46N 50°05' W 002°30'2 9.4
2017-May-26 19:30N 50°06' W 002°26'5 9.6
2017-May-26 19:00N 50°07' W 002°19'5 9.9
2017-May-26 18:30N 50°08' W 002°11'1011.1
2017-May-26 17:34N 50°10' W 001°55'312.3
2017-May-26 17:19N 50°11' W 001°51'813.1
2017-May-26 16:43N 50°14' W 001°40'714.1
2017-May-26 16:15N 50°17' W 001°30'414.8
2017-May-26 16:00N 50°17' W 001°24'3915.8
2017-May-26 13:33N 50°28' W 000°26'114.7
2017-May-26 13:30N 50°28' W 000°25'714.3
2017-May-26 13:00N 50°30' W 000°14'713.6
2017-May-26 12:30N 50°33' W 000°04'612.5
2017-May-26 12:00N 50°33' E 000°06'612.5
2017-May-26 11:30N 50°33' E 000°15'911.8
2017-May-26 10:45N 50°36' E 000°29'311.3
2017-May-26 10:30N 50°37' E 000°33'611.0
2017-May-26 10:00N 50°39' E 000°41'611.1
2017-May-26 09:30N 50°42' E 000°48'611.3
2017-May-26 09:00N 50°45' E 000°56'612.1
2017-May-26 08:30N 50°49' E 001°04'713.1
2017-May-26 08:00N 50°52' E 001°12'714.7
2017-May-26 07:30N 50°57' E 001°21'815.6
2017-May-26 07:00N 51°03' E 001°29'815.9
2017-May-26 06:31N 51°08' E 001°38'714.7
2017-May-26 06:01N 51°14' E 001°46'713.6
2017-May-26 05:30N 51°20' E 001°51'612.8
2017-May-26 05:00N 51°25' E 001°57'612.2
2017-May-26 04:30N 51°30' E 002°04'611.6
2017-May-26 04:00N 51°35' E 002°09'611.2
2017-May-26 03:30N 51°39' E 002°15'511.0
2017-May-26 03:01N 51°43' E 002°21'510.7
2017-May-26 02:30N 51°46' E 002°27'39812.1
2017-May-24 17:33N 57°28' E 008°20'111.1
2017-May-24 17:28N 57°29' E 008°21'511.0
2017-May-24 17:00N 57°31' E 008°30'611.1
2017-May-24 16:29N 57°34' E 008°39'611.1
2017-May-24 15:58N 57°37' E 008°48'511.3
2017-May-24 15:30N 57°40' E 008°56'611.4
2017-May-24 15:00N 57°43' E 009°05'611.3
2017-May-24 14:29N 57°46' E 009°15'1311.2
2017-May-24 13:18N 57°49' E 009°39'411.5
2017-May-24 12:56N 57°49' E 009°47'511.5
2017-May-24 12:30N 57°50' E 009°56'611.7
2017-May-24 11:59N 57°51' E 010°07'612.0
2017-May-24 11:30N 57°52' E 010°18'612.2
2017-May-24 11:00N 57°53' E 010°30'611.9
2017-May-24 10:30N 57°52' E 010°41'610.8
2017-May-24 09:58N 57°47' E 010°46'510.4
2017-May-24 09:30N 57°42' E 010°45'3 6.3
2017-May-24 08:58N 57°41' E 010°39'0 0.1
2017-May-24 07:39N 57°41' E 010°40'0 0.0
2017-May-24 07:30N 57°41' E 010°40'0 0.0
2017-May-24 06:30N 57°41' E 010°40'0 0.1
2017-May-24 06:00N 57°41' E 010°40'0 0.1
2017-May-24 05:30N 57°41' E 010°40'0 0.1
2017-May-24 04:57N 57°40' E 010°40'0 0.1
2017-May-24 04:30N 57°40' E 010°40'0 0.0
2017-May-24 03:57N 57°40' E 010°40'0 0.0
2017-May-24 03:27N 57°40' E 010°40'0 0.0
2017-May-24 03:00N 57°40' E 010°40'0 0.0
2017-May-24 01:48N 57°40' E 010°39'0 0.2
2017-May-24 01:29N 57°41' E 010°39'1 2.7
2017-May-24 01:00N 57°40' E 010°42'510.0
2017-May-24 00:30N 57°40' E 010°51'511.0
2017-May-24 00:00N 57°39' E 011°01'611.2
2017-May-23 23:30N 57°36' E 011°10'812.0
2017-May-23 22:52N 57°31' E 011°20'411.6
2017-May-23 22:30N 57°28' E 011°26'611.2
2017-May-23 22:00N 57°23' E 011°30'611.4
2017-May-23 21:30N 57°17' E 011°33'611.7
2017-May-23 21:00N 57°12' E 011°37'611.7
2017-May-23 20:30N 57°06' E 011°40'611.4
2017-May-23 20:00N 57°01' E 011°44'811.4
2017-May-23 19:16N 56°53' E 011°49'311.1
2017-May-23 19:00N 56°50' E 011°50'610.5
2017-May-23 18:28N 56°45' E 011°53'511.4
2017-May-23 18:00N 56°40' E 011°48'611.6
2017-May-23 17:30N 56°35' E 011°42'611.8
2017-May-23 16:58N 56°30' E 011°36'1211.6
2017-May-23 15:54N 56°19' E 011°25'56 9.7
2017-May-23 10:05N 55°24' E 011°00'4 9.3
2017-May-23 09:42N 55°20' E 011°02'4 9.5
2017-May-23 09:19N 55°17' E 011°04'3 9.9
2017-May-23 08:59N 55°14' E 011°06'4 8.8
2017-May-23 08:28N 55°10' E 011°01'5 9.8
2017-May-23 07:58N 55°06' E 010°59'510.1
2017-May-23 07:30N 55°01' E 010°59'510.0
2017-May-23 07:00N 54°57' E 010°54'510.9
2017-May-23 06:30N 54°52' E 010°50'611.4
2017-May-23 06:00N 54°46' E 010°49'710.0
2017-May-23 05:16N 54°39' E 010°52'311.6
2017-May-23 05:00N 54°37' E 010°57'811.4
2017-May-23 04:20N 54°36' E 011°10'411.4
2017-May-23 04:00N 54°35' E 011°16'611.2
2017-May-23 03:30N 54°33' E 011°24'611.3
2017-May-23 03:00N 54°30' E 011°33'611.1
2017-May-23 02:29N 54°28' E 011°42'19 9.5
2017-May-23 00:31N 54°32' E 012°14'011.2
2017-May-23 00:30N 54°32' E 012°14'510.6
2017-May-23 00:00N 54°37' E 012°17'4 7.9
2017-May-22 23:30N 54°39' E 012°23'4 8.1
2017-May-22 23:00N 54°41' E 012°29'23 6.8
2017-May-22 19:36N 54°52' E 013°05'111.0
2017-May-22 19:30N 54°52' E 013°07'712.0
2017-May-22 18:56N 54°55' E 013°18'612.4
2017-May-22 18:27N 54°57' E 013°28'612.4
2017-May-22 17:59N 54°59' E 013°37'612.3
2017-May-22 17:29N 55°01' E 013°47'612.1
2017-May-22 17:00N 55°04' E 013°56'611.8
2017-May-22 16:30N 55°06' E 014°05'612.1
2017-May-22 16:00N 55°11' E 014°12'612.3
2017-May-22 15:30N 55°16' E 014°18'612.2
2017-May-22 15:00N 55°21' E 014°25'1211.8
2017-May-22 14:00N 55°28' E 014°41'612.1
2017-May-22 13:30N 55°31' E 014°50'612.1
2017-May-22 12:58N 55°34' E 015°01'612.2
2017-May-22 12:30N 55°36' E 015°10'612.1
2017-May-22 12:00N 55°38' E 015°20'612.3
2017-May-22 11:30N 55°40' E 015°30'612.5
2017-May-22 11:00N 55°41' E 015°41'612.3
2017-May-22 10:30N 55°43' E 015°52'612.1
2017-May-22 10:00N 55°44' E 016°02'612.3
2017-May-22 09:30N 55°46' E 016°13'612.3
2017-May-22 09:00N 55°48' E 016°23'612.1
2017-May-22 08:30N 55°49' E 016°34'612.2
2017-May-22 08:00N 55°50' E 016°44'712.2
2017-May-22 07:25N 55°52' E 016°57'512.3
2017-May-22 07:00N 55°54' E 017°05'912.3
2017-May-22 06:17N 55°56' E 017°21'312.3
2017-May-22 06:00N 55°57' E 017°27'712.3
2017-May-22 05:27N 55°58' E 017°38'612.3
2017-May-22 04:59N 56°01' E 017°48'26612.2
2017-May-21 07:14N 59°33' E 022°49'512.6
2017-May-21 06:49N 59°34' E 022°59'412.6
2017-May-21 06:30N 59°35' E 023°07'612.3
2017-May-21 06:00N 59°37' E 023°18'612.2
2017-May-21 05:30N 59°39' E 023°30'612.2
2017-May-21 05:00N 59°41' E 023°41'612.2
2017-May-21 04:30N 59°43' E 023°53'612.1
2017-May-21 04:00N 59°44' E 024°04'7311.9
2017-May-20 21:54N 59°58' E 026°27'3911.9
2017-May-20 18:39N 59°32' E 027°24'211.8
2017-May-20 18:30N 59°31' E 027°27'510.6
2017-May-20 18:00N 59°29' E 027°37'5 0.2
2017-May-19 08:42N 59°25' E 027°44'0 0.1
2017-May-19 08:29N 59°25' E 027°44'0 0.6
2017-May-19 07:59N 59°26' E 027°44'1 2.6
2017-May-19 07:30N 59°27' E 027°43'2 4.4
2017-May-19 07:00N 59°29' E 027°42'1 1.6
2017-May-19 06:28N 59°30' E 027°42'0 0.1
2017-May-19 05:58N 59°30' E 027°42'0 0.1
2017-May-19 05:28N 59°30' E 027°42'0 0.0
2017-May-19 04:58N 59°30' E 027°42'0 0.0
2017-May-19 04:28N 59°30' E 027°42'0 0.0
2017-May-19 03:43N 59°30' E 027°42'0 0.0
2017-May-19 03:28N 59°30' E 027°42'0 0.0
2017-May-19 02:55N 59°30' E 027°42'0 0.0
2017-May-19 02:28N 59°30' E 027°42'0 0.1
2017-May-19 01:58N 59°30' E 027°42'0 0.1
2017-May-19 01:28N 59°30' E 027°42'0 0.1
2017-May-19 00:58N 59°30' E 027°43'0 0.1
2017-May-19 00:30N 59°30' E 027°42'2 3.6
2017-May-19 00:00N 59°31' E 027°39'3 5.6
2017-May-18 23:30N 59°31' E 027°34'4 8.2
2017-May-18 23:00N 59°32' E 027°26'611.3
2017-May-18 22:30N 59°34' E 027°15'2311.3
2017-May-18 20:29N 59°49' E 026°41'611.3
2017-May-18 19:58N 59°54' E 026°34'511.1
2017-May-18 19:30N 59°58' E 026°29'6 8.4
2017-May-18 18:45N 60°01' E 026°41'2111.2
2017-May-18 16:52N 60°05' E 027°22'511.8
2017-May-18 16:27N 60°08' E 027°30'611.7
2017-May-18 15:59N 60°10' E 027°40'510.9
2017-May-18 15:30N 60°12' E 027°50'611.9
2017-May-18 15:00N 60°10' E 028°02'1111.4
2017-May-18 14:00N 60°06' E 028°23'611.6
2017-May-18 13:30N 60°03' E 028°33'611.8
2017-May-18 13:00N 60°03' E 028°45'2111.5
2017-May-18 11:11N 60°02' E 029°27'2 8.0
2017-May-18 10:58N 60°01' E 029°31'511.1
2017-May-18 10:30N 59°60' E 029°40'5 9.0
2017-May-18 10:00N 59°58' E 029°48'510.1
2017-May-18 09:30N 59°56' E 029°58'5 9.5
2017-May-18 09:00N 59°54' E 030°06'2 4.2
2017-May-18 08:30N 59°53' E 030°10'0 0.0
2017-May-18 07:59N 59°53' E 030°10'0 0.0
2017-May-18 07:29N 59°53' E 030°10'0 0.0
2017-May-18 06:59N 59°53' E 030°10'0 0.0
2017-May-18 06:26N 59°53' E 030°10'0 0.0
2017-May-18 05:56N 59°53' E 030°10'0 0.0
2017-May-18 05:29N 59°53' E 030°10'0 0.0
2017-May-18 04:59N 59°53' E 030°10'0 0.0
2017-May-18 04:29N 59°53' E 030°10'0 0.0
2017-May-18 03:59N 59°53' E 030°10'0 0.0
2017-May-18 03:29N 59°53' E 030°10'0 0.0
2017-May-18 02:59N 59°53' E 030°10'0 0.0
2017-May-18 02:29N 59°53' E 030°10'0 0.0
2017-May-18 01:59N 59°53' E 030°10'0 0.0
2017-May-18 01:29N 59°53' E 030°10'0 0.0
2017-May-18 00:59N 59°53' E 030°10'0 0.0
2017-May-18 00:29N 59°53' E 030°10'0 0.0
2017-May-17 23:59N 59°53' E 030°10'0 0.0
2017-May-17 23:29N 59°53' E 030°10'0 0.0
2017-May-17 22:59N 59°53' E 030°10'0 0.0
2017-May-17 22:29N 59°53' E 030°10'0 0.0
2017-May-17 21:59N 59°53' E 030°10'0 0.0
2017-May-17 21:29N 59°53' E 030°10'0 0.0
2017-May-17 20:59N 59°53' E 030°10'0 0.0
2017-May-17 20:29N 59°53' E 030°10'0 0.0
2017-May-17 19:59N 59°53' E 030°10'0 0.0
2017-May-17 19:29N 59°53' E 030°10'0 0.0
2017-May-17 18:59N 59°53' E 030°10'0 0.0
2017-May-17 18:23N 59°53' E 030°10'0 0.0
2017-May-17 17:59N 59°53' E 030°10'0 0.0
2017-May-17 17:29N 59°53' E 030°10'0 0.0
2017-May-17 16:59N 59°53' E 030°10'0 0.0
2017-May-17 16:29N 59°53' E 030°10'0 0.0
2017-May-17 15:59N 59°53' E 030°10'0 0.0
2017-May-17 15:29N 59°53' E 030°10'0 0.0
2017-May-17 14:59N 59°53' E 030°10'0 0.0
2017-May-17 13:59N 59°53' E 030°10'0 0.0
2017-May-17 13:26N 59°53' E 030°10'0 0.0
2017-May-17 12:59N 59°53' E 030°10'0 0.0
2017-May-17 12:29N 59°53' E 030°10'0 0.0
2017-May-17 11:59N 59°53' E 030°10'0 0.0
2017-May-17 11:29N 59°53' E 030°10'0 0.0
2017-May-17 10:56N 59°53' E 030°10'0 0.0
2017-May-17 10:29N 59°53' E 030°10'0 0.0
2017-May-17 09:59N 59°53' E 030°10'0 0.0
2017-May-17 09:26N 59°53' E 030°10'0 0.0
2017-May-17 08:59N 59°53' E 030°10'0 0.0
2017-May-17 08:29N 59°53' E 030°10'0 0.0
2017-May-17 07:59N 59°53' E 030°10'0 0.0
2017-May-17 07:29N 59°53' E 030°10'0 0.0
2017-May-17 06:59N 59°53' E 030°10'0 0.0
2017-May-17 06:29N 59°53' E 030°10'0 0.0
2017-May-17 05:59N 59°53' E 030°10'0 0.0
2017-May-17 05:29N 59°53' E 030°10'0 0.0
2017-May-17 04:59N 59°53' E 030°10'0 0.0
2017-May-17 04:29N 59°53' E 030°10'0 0.0
2017-May-17 03:59N 59°53' E 030°10'0 0.0
2017-May-17 03:29N 59°53' E 030°10'0 0.0
2017-May-17 02:59N 59°53' E 030°10'0 0.0
2017-May-17 02:26N 59°53' E 030°10'0 0.0
2017-May-17 01:59N 59°53' E 030°10'0 0.0
2017-May-17 01:29N 59°53' E 030°10'0 0.0
2017-May-17 00:59N 59°53' E 030°10'0 0.0
2017-May-17 00:29N 59°53' E 030°10'0 0.0
2017-May-16 23:59N 59°53' E 030°10'0 0.0
2017-May-16 23:29N 59°53' E 030°10'  
Track history (hours):
 
Tides and Currents Weather Stations Pressure Air Temp Water Temp Dewpoint Dewpoint Depression Visibility Wind Speed Wind Dir Waves Ship Positions

Olib

Last reported at 2017-May-26 23:18 UTC. Time now 2017-May-27 04:22 UTC.
Position N 49°48' W 003°26'.

Length 247 m; draft 14.8 m.

Type: Ship (hazmat cat A). MMSI: 238252000.

Date/timePositionNaut miles runAvg speedWind from/ knotsBaromVisibWave heightAir tempDewpointWater temp
2017-May-26 23:18N 49°48' W 003°26'413.5
2017-May-26 23:01N 49°50' W 003°20'612.9
2017-May-26 22:31N 49°54' W 003°12'612.3
2017-May-26 22:01N 49°57' W 003°04'611.5
2017-May-26 21:31N 49°60' W 002°56'510.8
2017-May-26 21:01N 50°01' W 002°48'510.2
2017-May-26 20:31N 50°03' W 002°40'7 9.7
2017-May-26 19:46N 50°05' W 002°30'2 9.4
2017-May-26 19:30N 50°06' W 002°26'5 9.6
2017-May-26 19:00N 50°07' W 002°19'5 9.9
2017-May-26 18:30N 50°08' W 002°11'1011.1
2017-May-26 17:34N 50°10' W 001°55'312.3
2017-May-26 17:19N 50°11' W 001°51'813.1
2017-May-26 16:43N 50°14' W 001°40'714.1
2017-May-26 16:15N 50°17' W 001°30'414.8
2017-May-26 16:00N 50°17' W 001°24'3915.8
2017-May-26 13:33N 50°28' W 000°26'114.7
2017-May-26 13:30N 50°28' W 000°25'714.3
2017-May-26 13:00N 50°30' W 000°14'713.6
2017-May-26 12:30N 50°33' W 000°04'612.5
2017-May-26 12:00N 50°33' E 000°06'612.5
2017-May-26 11:30N 50°33' E 000°15'911.8
2017-May-26 10:45N 50°36' E 000°29'311.3
2017-May-26 10:30N 50°37' E 000°33'611.0
2017-May-26 10:00N 50°39' E 000°41'611.1
2017-May-26 09:30N 50°42' E 000°48'611.3
2017-May-26 09:00N 50°45' E 000°56'612.1
2017-May-26 08:30N 50°49' E 001°04'713.1
2017-May-26 08:00N 50°52' E 001°12'714.7
2017-May-26 07:30N 50°57' E 001°21'815.6
2017-May-26 07:00N 51°03' E 001°29'815.9
2017-May-26 06:31N 51°08' E 001°38'714.7
2017-May-26 06:01N 51°14' E 001°46'713.6
2017-May-26 05:30N 51°20' E 001°51'612.8
2017-May-26 05:00N 51°25' E 001°57'612.2
2017-May-26 04:30N 51°30' E 002°04'611.6
2017-May-26 04:00N 51°35' E 002°09'611.2
2017-May-26 03:30N 51°39' E 002°15'511.0
2017-May-26 03:01N 51°43' E 002°21'510.7
2017-May-26 02:30N 51°46' E 002°27'39812.1
2017-May-24 17:33N 57°28' E 008°20'111.1
2017-May-24 17:28N 57°29' E 008°21'511.0
2017-May-24 17:00N 57°31' E 008°30'611.1
2017-May-24 16:29N 57°34' E 008°39'611.1
2017-May-24 15:58N 57°37' E 008°48'511.3
2017-May-24 15:30N 57°40' E 008°56'611.4
2017-May-24 15:00N 57°43' E 009°05'611.3
2017-May-24 14:29N 57°46' E 009°15'1311.2
2017-May-24 13:18N 57°49' E 009°39'411.5
2017-May-24 12:56N 57°49' E 009°47'511.5
2017-May-24 12:30N 57°50' E 009°56'611.7
2017-May-24 11:59N 57°51' E 010°07'612.0
2017-May-24 11:30N 57°52' E 010°18'612.2
2017-May-24 11:00N 57°53' E 010°30'611.9
2017-May-24 10:30N 57°52' E 010°41'610.8
2017-May-24 09:58N 57°47' E 010°46'510.4
2017-May-24 09:30N 57°42' E 010°45'3 6.3
2017-May-24 08:58N 57°41' E 010°39'0 0.1
2017-May-24 07:39N 57°41' E 010°40'0 0.0
2017-May-24 07:30N 57°41' E 010°40'0 0.0
2017-May-24 06:30N 57°41' E 010°40'0 0.1
2017-May-24 06:00N 57°41' E 010°40'0 0.1
2017-May-24 05:30N 57°41' E 010°40'0 0.1
2017-May-24 04:57N 57°40' E 010°40'0 0.1
2017-May-24 04:30N 57°40' E 010°40'0 0.0
2017-May-24 03:57N 57°40' E 010°40'0 0.0
2017-May-24 03:27N 57°40' E 010°40'0 0.0
2017-May-24 03:00N 57°40' E 010°40'0 0.0
2017-May-24 01:48N 57°40' E 010°39'0 0.2
2017-May-24 01:29N 57°41' E 010°39'1 2.7
2017-May-24 01:00N 57°40' E 010°42'510.0
2017-May-24 00:30N 57°40' E 010°51'511.0
2017-May-24 00:00N 57°39' E 011°01'611.2
2017-May-23 23:30N 57°36' E 011°10'812.0
2017-May-23 22:52N 57°31' E 011°20'411.6
2017-May-23 22:30N 57°28' E 011°26'611.2
2017-May-23 22:00N 57°23' E 011°30'611.4
2017-May-23 21:30N 57°17' E 011°33'611.7
2017-May-23 21:00N 57°12' E 011°37'611.7
2017-May-23 20:30N 57°06' E 011°40'611.4
2017-May-23 20:00N 57°01' E 011°44'811.4
2017-May-23 19:16N 56°53' E 011°49'311.1
2017-May-23 19:00N 56°50' E 011°50'610.5
2017-May-23 18:28N 56°45' E 011°53'511.4
2017-May-23 18:00N 56°40' E 011°48'611.6
2017-May-23 17:30N 56°35' E 011°42'611.8
2017-May-23 16:58N 56°30' E 011°36'1211.6
2017-May-23 15:54N 56°19' E 011°25'56 9.7
2017-May-23 10:05N 55°24' E 011°00'4 9.3
2017-May-23 09:42N 55°20' E 011°02'4 9.5
2017-May-23 09:19N 55°17' E 011°04'3 9.9
2017-May-23 08:59N 55°14' E 011°06'4 8.8
2017-May-23 08:28N 55°10' E 011°01'5 9.8
2017-May-23 07:58N 55°06' E 010°59'510.1
2017-May-23 07:30N 55°01' E 010°59'510.0
2017-May-23 07:00N 54°57' E 010°54'510.9
2017-May-23 06:30N 54°52' E 010°50'611.4
2017-May-23 06:00N 54°46' E 010°49'710.0
2017-May-23 05:16N 54°39' E 010°52'311.6
2017-May-23 05:00N 54°37' E 010°57'811.4
2017-May-23 04:20N 54°36' E 011°10'411.4
2017-May-23 04:00N 54°35' E 011°16'611.2
2017-May-23 03:30N 54°33' E 011°24'611.3
2017-May-23 03:00N 54°30' E 011°33'611.1
2017-May-23 02:29N 54°28' E 011°42'19 9.5
2017-May-23 00:31N 54°32' E 012°14'011.2
2017-May-23 00:30N 54°32' E 012°14'510.6
2017-May-23 00:00N 54°37' E 012°17'4 7.9
2017-May-22 23:30N 54°39' E 012°23'4 8.1
2017-May-22 23:00N 54°41' E 012°29'23 6.8
2017-May-22 19:36N 54°52' E 013°05'111.0
2017-May-22 19:30N 54°52' E 013°07'712.0
2017-May-22 18:56N 54°55' E 013°18'612.4
2017-May-22 18:27N 54°57' E 013°28'612.4
2017-May-22 17:59N 54°59' E 013°37'612.3
2017-May-22 17:29N 55°01' E 013°47'612.1
2017-May-22 17:00N 55°04' E 013°56'611.8
2017-May-22 16:30N 55°06' E 014°05'612.1
2017-May-22 16:00N 55°11' E 014°12'612.3
2017-May-22 15:30N 55°16' E 014°18'612.2
2017-May-22 15:00N 55°21' E 014°25'1211.8
2017-May-22 14:00N 55°28' E 014°41'612.1
2017-May-22 13:30N 55°31' E 014°50'612.1
2017-May-22 12:58N 55°34' E 015°01'612.2
2017-May-22 12:30N 55°36' E 015°10'612.1
2017-May-22 12:00N 55°38' E 015°20'612.3
2017-May-22 11:30N 55°40' E 015°30'612.5
2017-May-22 11:00N 55°41' E 015°41'612.3
2017-May-22 10:30N 55°43' E 015°52'612.1
2017-May-22 10:00N 55°44' E 016°02'612.3
2017-May-22 09:30N 55°46' E 016°13'612.3
2017-May-22 09:00N 55°48' E 016°23'612.1
2017-May-22 08:30N 55°49' E 016°34'612.2
2017-May-22 08:00N 55°50' E 016°44'712.2
2017-May-22 07:25N 55°52' E 016°57'512.3
2017-May-22 07:00N 55°54' E 017°05'912.3
2017-May-22 06:17N 55°56' E 017°21'312.3
2017-May-22 06:00N 55°57' E 017°27'712.3
2017-May-22 05:27N 55°58' E 017°38'612.3
2017-May-22 04:59N 56°01' E 017°48'26612.2
2017-May-21 07:14N 59°33' E 022°49'512.6
2017-May-21 06:49N 59°34' E 022°59'412.6
2017-May-21 06:30N 59°35' E 023°07'612.3
2017-May-21 06:00N 59°37' E 023°18'612.2
2017-May-21 05:30N 59°39' E 023°30'612.2
2017-May-21 05:00N 59°41' E 023°41'612.2
2017-May-21 04:30N 59°43' E 023°53'612.1
2017-May-21 04:00N 59°44' E 024°04'7311.9
2017-May-20 21:54N 59°58' E 026°27'3911.9
2017-May-20 18:39N 59°32' E 027°24'211.8
2017-May-20 18:30N 59°31' E 027°27'510.6
2017-May-20 18:00N 59°29' E 027°37'5 0.2
2017-May-19 08:42N 59°25' E 027°44'0 0.1
2017-May-19 08:29N 59°25' E 027°44'0 0.6
2017-May-19 07:59N 59°26' E 027°44'1 2.6
2017-May-19 07:30N 59°27' E 027°43'2 4.4
2017-May-19 07:00N 59°29' E 027°42'1 1.6
2017-May-19 06:28N 59°30' E 027°42'0 0.1
2017-May-19 05:58N 59°30' E 027°42'0 0.1
2017-May-19 05:28N 59°30' E 027°42'0 0.0
2017-May-19 04:58N 59°30' E 027°42'0 0.0
2017-May-19 04:28N 59°30' E 027°42'0 0.0
2017-May-19 03:43N 59°30' E 027°42'0 0.0
2017-May-19 03:28N 59°30' E 027°42'0 0.0
2017-May-19 02:55N 59°30' E 027°42'0 0.0
2017-May-19 02:28N 59°30' E 027°42'0 0.1
2017-May-19 01:58N 59°30' E 027°42'0 0.1
2017-May-19 01:28N 59°30' E 027°42'0 0.1
2017-May-19 00:58N 59°30' E 027°43'0 0.1
2017-May-19 00:30N 59°30' E 027°42'2 3.6
2017-May-19 00:00N 59°31' E 027°39'3 5.6
2017-May-18 23:30N 59°31' E 027°34'4 8.2
2017-May-18 23:00N 59°32' E 027°26'611.3
2017-May-18 22:30N 59°34' E 027°15'2311.3
2017-May-18 20:29N 59°49' E 026°41'611.3
2017-May-18 19:58N 59°54' E 026°34'511.1
2017-May-18 19:30N 59°58' E 026°29'6 8.4
2017-May-18 18:45N 60°01' E 026°41'2111.2
2017-May-18 16:52N 60°05' E 027°22'511.8
2017-May-18 16:27N 60°08' E 027°30'611.7
2017-May-18 15:59N 60°10' E 027°40'510.9
2017-May-18 15:30N 60°12' E 027°50'611.9
2017-May-18 15:00N 60°10' E 028°02'1111.4
2017-May-18 14:00N 60°06' E 028°23'611.6
2017-May-18 13:30N 60°03' E 028°33'611.8
2017-May-18 13:00N 60°03' E 028°45'2111.5
2017-May-18 11:11N 60°02' E 029°27'2 8.0
2017-May-18 10:58N 60°01' E 029°31'511.1
2017-May-18 10:30N 59°60' E 029°40'5 9.0
2017-May-18 10:00N 59°58' E 029°48'510.1
2017-May-18 09:30N 59°56' E 029°58'5 9.5
2017-May-18 09:00N 59°54' E 030°06'2 4.2
2017-May-18 08:30N 59°53' E 030°10'0 0.0
2017-May-18 07:59N 59°53' E 030°10'0 0.0
2017-May-18 07:29N 59°53' E 030°10'0 0.0
2017-May-18 06:59N 59°53' E 030°10'0 0.0
2017-May-18 06:26N 59°53' E 030°10'0 0.0
2017-May-18 05:56N 59°53' E 030°10'0 0.0
2017-May-18 05:29N 59°53' E 030°10'0 0.0
2017-May-18 04:59N 59°53' E 030°10'0 0.0
2017-May-18 04:29N 59°53' E 030°10'0 0.0
2017-May-18 03:59N 59°53' E 030°10'0 0.0
2017-May-18 03:29N 59°53' E 030°10'0 0.0
2017-May-18 02:59N 59°53' E 030°10'0 0.0
2017-May-18 02:29N 59°53' E 030°10'0 0.0
2017-May-18 01:59N 59°53' E 030°10'0 0.0
2017-May-18 01:29N 59°53' E 030°10'0 0.0
2017-May-18 00:59N 59°53' E 030°10'0 0.0
2017-May-18 00:29N 59°53' E 030°10'0 0.0
2017-May-17 23:59N 59°53' E 030°10'0 0.0
2017-May-17 23:29N 59°53' E 030°10'0 0.0
2017-May-17 22:59N 59°53' E 030°10'0 0.0
2017-May-17 22:29N 59°53' E 030°10'0 0.0
2017-May-17 21:59N 59°53' E 030°10'0 0.0
2017-May-17 21:29N 59°53' E 030°10'0 0.0
2017-May-17 20:59N 59°53' E 030°10'0 0.0
2017-May-17 20:29N 59°53' E 030°10'0 0.0
2017-May-17 19:59N 59°53' E 030°10'0 0.0
2017-May-17 19:29N 59°53' E 030°10'0 0.0
2017-May-17 18:59N 59°53' E 030°10'0 0.0
2017-May-17 18:23N 59°53' E 030°10'0 0.0
2017-May-17 17:59N 59°53' E 030°10'0 0.0
2017-May-17 17:29N 59°53' E 030°10'0 0.0
2017-May-17 16:59N 59°53' E 030°10'0 0.0
2017-May-17 16:29N 59°53' E 030°10'0 0.0
2017-May-17 15:59N 59°53' E 030°10'0 0.0
2017-May-17 15:29N 59°53' E 030°10'0 0.0
2017-May-17 14:59N 59°53' E 030°10'0 0.0
2017-May-17 13:59N 59°53' E 030°10'0 0.0
2017-May-17 13:26N 59°53' E 030°10'0 0.0
2017-May-17 12:59N 59°53' E 030°10'0 0.0
2017-May-17 12:29N 59°53' E 030°10'0 0.0
2017-May-17 11:59N 59°53' E 030°10'0 0.0
2017-May-17 11:29N 59°53' E 030°10'0 0.0
2017-May-17 10:56N 59°53' E 030°10'0 0.0
2017-May-17 10:29N 59°53' E 030°10'0 0.0
2017-May-17 09:59N 59°53' E 030°10'0 0.0
2017-May-17 09:26N 59°53' E 030°10'0 0.0
2017-May-17 08:59N 59°53' E 030°10'0 0.0
2017-May-17 08:29N 59°53' E 030°10'0 0.0
2017-May-17 07:59N 59°53' E 030°10'0 0.0
2017-May-17 07:29N 59°53' E 030°10'0 0.0
2017-May-17 06:59N 59°53' E 030°10'0 0.0
2017-May-17 06:29N 59°53' E 030°10'0 0.0
2017-May-17 05:59N 59°53' E 030°10'0 0.0
2017-May-17 05:29N 59°53' E 030°10'0 0.0
2017-May-17 04:59N 59°53' E 030°10'0 0.0
2017-May-17 04:29N 59°53' E 030°10'0 0.0
2017-May-17 03:59N 59°53' E 030°10'0 0.0
2017-May-17 03:29N 59°53' E 030°10'0 0.0
2017-May-17 02:59N 59°53' E 030°10'0 0.0
2017-May-17 02:26N 59°53' E 030°10'0 0.0
2017-May-17 01:59N 59°53' E 030°10'0 0.0
2017-May-17 01:29N 59°53' E 030°10'0 0.0
2017-May-17 00:59N 59°53' E 030°10'0 0.0
2017-May-17 00:29N 59°53' E 030°10'0 0.0
2017-May-16 23:59N 59°53' E 030°10'0 0.0
2017-May-16 23:29N 59°53' E 030°10'  

Dump ship's entire track history